sensor_id;sensor_type;location;lat;lon;timestamp;temperature;humidity
67163;DHT22;54092;53.088;8.850;2024-03-06T00:02:18;4.80;99.90
67163;DHT22;54092;53.088;8.850;2024-03-06T00:04:44;4.80;99.90
67163;DHT22;54092;53.088;8.850;2024-03-06T00:07:09;4.80;99.90
67163;DHT22;54092;53.088;8.850;2024-03-06T00:09:35;4.80;99.90
67163;DHT22;54092;53.088;8.850;2024-03-06T00:12:02;4.80;99.90
67163;DHT22;54092;53.088;8.850;2024-03-06T00:14:27;4.80;99.90
67163;DHT22;54092;53.088;8.850;2024-03-06T00:16:53;4.80;99.90
67163;DHT22;54092;53.088;8.850;2024-03-06T00:19:21;4.80;99.90
67163;DHT22;54092;53.088;8.850;2024-03-06T00:21:46;4.80;99.90
67163;DHT22;54092;53.088;8.850;2024-03-06T00:24:13;4.80;99.90
67163;DHT22;54092;53.088;8.850;2024-03-06T00:26:45;4.80;99.90
67163;DHT22;54092;53.088;8.850;2024-03-06T00:29:11;4.80;99.90
67163;DHT22;54092;53.088;8.850;2024-03-06T00:31:36;4.70;99.90
67163;DHT22;54092;53.088;8.850;2024-03-06T00:34:02;4.70;99.90
67163;DHT22;54092;53.088;8.850;2024-03-06T00:36:28;4.70;99.90
67163;DHT22;54092;53.088;8.850;2024-03-06T00:38:54;4.80;99.90
67163;DHT22;54092;53.088;8.850;2024-03-06T00:41:19;4.80;99.90
67163;DHT22;54092;53.088;8.850;2024-03-06T00:43:45;4.70;99.90
67163;DHT22;54092;53.088;8.850;2024-03-06T00:46:10;4.80;99.90
67163;DHT22;54092;53.088;8.850;2024-03-06T00:48:36;4.70;99.90
67163;DHT22;54092;53.088;8.850;2024-03-06T00:51:01;4.80;99.90
67163;DHT22;54092;53.088;8.850;2024-03-06T00:53:27;4.80;99.90
67163;DHT22;54092;53.088;8.850;2024-03-06T00:55:53;4.70;99.90
67163;DHT22;54092;53.088;8.850;2024-03-06T00:58:19;4.80;99.90
67163;DHT22;54092;53.088;8.850;2024-03-06T01:00:44;4.80;99.90
67163;DHT22;54092;53.088;8.850;2024-03-06T01:03:09;4.80;99.90
67163;DHT22;54092;53.088;8.850;2024-03-06T01:05:35;4.70;99.90
67163;DHT22;54092;53.088;8.850;2024-03-06T01:08:00;4.70;99.90
67163;DHT22;54092;53.088;8.850;2024-03-06T01:10:26;4.70;99.90
67163;DHT22;54092;53.088;8.850;2024-03-06T01:12:51;4.70;99.90
67163;DHT22;54092;53.088;8.850;2024-03-06T01:15:17;4.70;99.90
67163;DHT22;54092;53.088;8.850;2024-03-06T01:17:42;4.80;99.90
67163;DHT22;54092;53.088;8.850;2024-03-06T01:20:08;4.80;99.90
67163;DHT22;54092;53.088;8.850;2024-03-06T01:22:34;4.70;99.90
67163;DHT22;54092;53.088;8.850;2024-03-06T01:25:00;4.70;99.90
67163;DHT22;54092;53.088;8.850;2024-03-06T01:27:27;4.70;99.90
67163;DHT22;54092;53.088;8.850;2024-03-06T01:29:52;4.70;99.90
67163;DHT22;54092;53.088;8.850;2024-03-06T01:32:18;4.70;99.90
67163;DHT22;54092;53.088;8.850;2024-03-06T01:34:43;4.70;99.90
67163;DHT22;54092;53.088;8.850;2024-03-06T01:37:09;4.70;99.90
67163;DHT22;54092;53.088;8.850;2024-03-06T01:39:34;4.70;99.90
67163;DHT22;54092;53.088;8.850;2024-03-06T01:42:01;4.70;99.90
67163;DHT22;54092;53.088;8.850;2024-03-06T01:44:27;4.70;99.90
67163;DHT22;54092;53.088;8.850;2024-03-06T01:46:52;4.70;99.90
67163;DHT22;54092;53.088;8.850;2024-03-06T01:49:19;4.70;99.90
67163;DHT22;54092;53.088;8.850;2024-03-06T01:51:49;4.70;99.90
67163;DHT22;54092;53.088;8.850;2024-03-06T01:54:16;4.60;99.90
67163;DHT22;54092;53.088;8.850;2024-03-06T01:56:46;4.60;99.90
67163;DHT22;54092;53.088;8.850;2024-03-06T01:59:19;4.70;99.90
67163;DHT22;54092;53.088;8.850;2024-03-06T02:01:46;4.70;99.90
67163;DHT22;54092;53.088;8.850;2024-03-06T02:04:12;4.70;99.90
67163;DHT22;54092;53.088;8.850;2024-03-06T02:06:39;4.70;99.90
67163;DHT22;54092;53.088;8.850;2024-03-06T02:09:05;4.70;99.90
67163;DHT22;54092;53.088;8.850;2024-03-06T02:11:32;4.70;99.90
67163;DHT22;54092;53.088;8.850;2024-03-06T02:13:57;4.70;99.90
67163;DHT22;54092;53.088;8.850;2024-03-06T02:16:23;4.70;99.90
67163;DHT22;54092;53.088;8.850;2024-03-06T02:18:55;4.70;99.90
67163;DHT22;54092;53.088;8.850;2024-03-06T02:21:23;4.70;99.90
67163;DHT22;54092;53.088;8.850;2024-03-06T02:23:48;4.70;99.90
67163;DHT22;54092;53.088;8.850;2024-03-06T02:26:19;4.70;99.90
67163;DHT22;54092;53.088;8.850;2024-03-06T02:28:52;4.70;99.90
67163;DHT22;54092;53.088;8.850;2024-03-06T02:31:18;4.70;99.90
67163;DHT22;54092;53.088;8.850;2024-03-06T02:33:45;4.70;99.90
67163;DHT22;54092;53.088;8.850;2024-03-06T02:36:11;4.70;99.90
67163;DHT22;54092;53.088;8.850;2024-03-06T02:38:37;4.80;99.90
67163;DHT22;54092;53.088;8.850;2024-03-06T02:41:03;4.80;99.90
67163;DHT22;54092;53.088;8.850;2024-03-06T02:43:28;4.80;99.90
67163;DHT22;54092;53.088;8.850;2024-03-06T02:45:54;4.70;99.90
67163;DHT22;54092;53.088;8.850;2024-03-06T02:48:19;4.70;99.90
67163;DHT22;54092;53.088;8.850;2024-03-06T02:50:45;4.70;99.90
67163;DHT22;54092;53.088;8.850;2024-03-06T02:53:10;4.70;99.90
67163;DHT22;54092;53.088;8.850;2024-03-06T02:55:36;4.70;99.90
67163;DHT22;54092;53.088;8.850;2024-03-06T02:58:02;4.70;99.90
67163;DHT22;54092;53.088;8.850;2024-03-06T03:00:28;4.70;99.90
67163;DHT22;54092;53.088;8.850;2024-03-06T03:02:53;4.70;99.90
67163;DHT22;54092;53.088;8.850;2024-03-06T03:05:19;4.70;99.90
67163;DHT22;54092;53.088;8.850;2024-03-06T03:07:44;4.70;99.90
67163;DHT22;54092;53.088;8.850;2024-03-06T03:10:10;4.60;99.90
67163;DHT22;54092;53.088;8.850;2024-03-06T03:12:37;4.60;99.90
67163;DHT22;54092;53.088;8.850;2024-03-06T03:15:04;4.50;99.90
67163;DHT22;54092;53.088;8.850;2024-03-06T03:17:29;4.50;99.90
67163;DHT22;54092;53.088;8.850;2024-03-06T03:19:55;4.50;99.90
67163;DHT22;54092;53.088;8.850;2024-03-06T03:22:20;4.50;99.90
67163;DHT22;54092;53.088;8.850;2024-03-06T03:24:46;4.50;99.90
67163;DHT22;54092;53.088;8.850;2024-03-06T03:27:12;4.50;99.90
67163;DHT22;54092;53.088;8.850;2024-03-06T03:29:38;4.40;99.90
67163;DHT22;54092;53.088;8.850;2024-03-06T03:32:04;4.40;99.90
67163;DHT22;54092;53.088;8.850;2024-03-06T03:34:30;4.40;99.90
67163;DHT22;54092;53.088;8.850;2024-03-06T03:36:55;4.40;99.90
67163;DHT22;54092;53.088;8.850;2024-03-06T03:39:22;4.40;99.90
67163;DHT22;54092;53.088;8.850;2024-03-06T03:41:50;4.40;99.90
67163;DHT22;54092;53.088;8.850;2024-03-06T03:44:19;4.30;99.90
67163;DHT22;54092;53.088;8.850;2024-03-06T03:46:45;4.30;99.90
67163;DHT22;54092;53.088;8.850;2024-03-06T03:49:10;4.40;99.90
67163;DHT22;54092;53.088;8.850;2024-03-06T03:51:37;4.40;99.90
67163;DHT22;54092;53.088;8.850;2024-03-06T03:54:03;4.30;99.90
67163;DHT22;54092;53.088;8.850;2024-03-06T03:56:29;4.30;99.90
67163;DHT22;54092;53.088;8.850;2024-03-06T03:58:56;4.30;99.90
67163;DHT22;54092;53.088;8.850;2024-03-06T04:01:22;4.30;99.90
67163;DHT22;54092;53.088;8.850;2024-03-06T04:03:48;4.30;99.90
67163;DHT22;54092;53.088;8.850;2024-03-06T04:06:14;4.30;99.90
67163;DHT22;54092;53.088;8.850;2024-03-06T04:08:39;4.30;99.90
67163;DHT22;54092;53.088;8.850;2024-03-06T04:11:05;4.30;99.90
67163;DHT22;54092;53.088;8.850;2024-03-06T04:13:36;4.20;99.90
67163;DHT22;54092;53.088;8.850;2024-03-06T04:16:01;4.20;99.90
67163;DHT22;54092;53.088;8.850;2024-03-06T04:18:28;4.20;99.90
67163;DHT22;54092;53.088;8.850;2024-03-06T04:20:54;4.20;99.90
67163;DHT22;54092;53.088;8.850;2024-03-06T04:23:20;4.20;99.90
67163;DHT22;54092;53.088;8.850;2024-03-06T04:25:45;4.30;99.90
67163;DHT22;54092;53.088;8.850;2024-03-06T04:28:11;4.20;99.90
67163;DHT22;54092;53.088;8.850;2024-03-06T04:30:36;4.20;99.90
67163;DHT22;54092;53.088;8.850;2024-03-06T04:33:02;4.20;99.90
67163;DHT22;54092;53.088;8.850;2024-03-06T04:35:28;4.20;99.90
67163;DHT22;54092;53.088;8.850;2024-03-06T04:37:53;4.20;99.90
67163;DHT22;54092;53.088;8.850;2024-03-06T04:40:19;4.20;99.90
67163;DHT22;54092;53.088;8.850;2024-03-06T04:42:47;4.20;99.90
67163;DHT22;54092;53.088;8.850;2024-03-06T04:45:15;4.10;99.90
67163;DHT22;54092;53.088;8.850;2024-03-06T04:47:41;4.10;99.90
67163;DHT22;54092;53.088;8.850;2024-03-06T04:50:11;4.10;99.90
67163;DHT22;54092;53.088;8.850;2024-03-06T04:52:38;4.10;99.90
67163;DHT22;54092;53.088;8.850;2024-03-06T04:55:04;4.10;99.90
67163;DHT22;54092;53.088;8.850;2024-03-06T04:57:30;4.10;99.90
67163;DHT22;54092;53.088;8.850;2024-03-06T04:59:55;4.10;99.90
67163;DHT22;54092;53.088;8.850;2024-03-06T05:02:22;4.10;99.90
67163;DHT22;54092;53.088;8.850;2024-03-06T05:04:48;4.00;99.90
67163;DHT22;54092;53.088;8.850;2024-03-06T05:07:13;4.00;99.90
67163;DHT22;54092;53.088;8.850;2024-03-06T05:09:39;4.00;99.90
67163;DHT22;54092;53.088;8.850;2024-03-06T05:12:07;4.00;99.90
67163;DHT22;54092;53.088;8.850;2024-03-06T05:14:32;3.90;99.90
67163;DHT22;54092;53.088;8.850;2024-03-06T05:16:58;3.90;99.90
67163;DHT22;54092;53.088;8.850;2024-03-06T05:19:24;3.90;99.90
67163;DHT22;54092;53.088;8.850;2024-03-06T05:22:00;3.90;99.90
67163;DHT22;54092;53.088;8.850;2024-03-06T05:24:25;3.90;99.90
67163;DHT22;54092;53.088;8.850;2024-03-06T05:26:51;3.80;99.90
67163;DHT22;54092;53.088;8.850;2024-03-06T05:29:16;3.80;99.90
67163;DHT22;54092;53.088;8.850;2024-03-06T05:31:42;3.80;99.90
67163;DHT22;54092;53.088;8.850;2024-03-06T05:34:08;3.80;99.90
67163;DHT22;54092;53.088;8.850;2024-03-06T05:36:34;3.80;99.90
67163;DHT22;54092;53.088;8.850;2024-03-06T05:38:59;3.90;99.90
67163;DHT22;54092;53.088;8.850;2024-03-06T05:41:25;3.90;99.90
67163;DHT22;54092;53.088;8.850;2024-03-06T05:43:50;3.90;99.90
67163;DHT22;54092;53.088;8.850;2024-03-06T05:46:16;3.90;99.90
67163;DHT22;54092;53.088;8.850;2024-03-06T05:48:42;3.90;99.90
67163;DHT22;54092;53.088;8.850;2024-03-06T05:51:07;3.90;99.90
67163;DHT22;54092;53.088;8.850;2024-03-06T05:53:37;3.80;99.90
67163;DHT22;54092;53.088;8.850;2024-03-06T05:56:05;3.80;99.90
67163;DHT22;54092;53.088;8.850;2024-03-06T05:58:31;3.80;99.90
67163;DHT22;54092;53.088;8.850;2024-03-06T06:00:56;3.80;99.90
67163;DHT22;54092;53.088;8.850;2024-03-06T06:03:22;3.80;99.90
67163;DHT22;54092;53.088;8.850;2024-03-06T06:05:47;3.90;99.90
67163;DHT22;54092;53.088;8.850;2024-03-06T06:08:13;3.90;99.90
67163;DHT22;54092;53.088;8.850;2024-03-06T06:10:38;3.90;99.90
67163;DHT22;54092;53.088;8.850;2024-03-06T06:13:04;3.80;99.90
67163;DHT22;54092;53.088;8.850;2024-03-06T06:15:30;3.90;99.90
67163;DHT22;54092;53.088;8.850;2024-03-06T06:17:55;3.80;99.90
67163;DHT22;54092;53.088;8.850;2024-03-06T06:20:21;3.80;99.90
67163;DHT22;54092;53.088;8.850;2024-03-06T06:22:46;3.90;99.90
67163;DHT22;54092;53.088;8.850;2024-03-06T06:25:12;3.90;99.90
67163;DHT22;54092;53.088;8.850;2024-03-06T06:27:38;3.90;99.90
67163;DHT22;54092;53.088;8.850;2024-03-06T06:30:04;3.80;99.90
67163;DHT22;54092;53.088;8.850;2024-03-06T06:32:30;3.90;99.90
67163;DHT22;54092;53.088;8.850;2024-03-06T06:34:56;3.90;99.90
67163;DHT22;54092;53.088;8.850;2024-03-06T06:37:21;3.90;99.90
67163;DHT22;54092;53.088;8.850;2024-03-06T06:39:47;3.90;99.90
67163;DHT22;54092;53.088;8.850;2024-03-06T06:42:13;3.90;99.90
67163;DHT22;54092;53.088;8.850;2024-03-06T06:44:39;3.90;99.90
67163;DHT22;54092;53.088;8.850;2024-03-06T06:47:04;3.90;99.90
67163;DHT22;54092;53.088;8.850;2024-03-06T06:49:30;3.90;99.90
67163;DHT22;54092;53.088;8.850;2024-03-06T06:51:55;3.90;99.90
67163;DHT22;54092;53.088;8.850;2024-03-06T06:54:21;3.90;99.90
67163;DHT22;54092;53.088;8.850;2024-03-06T06:56:46;3.90;99.90
67163;DHT22;54092;53.088;8.850;2024-03-06T06:59:12;3.90;99.90
67163;DHT22;54092;53.088;8.850;2024-03-06T07:01:38;3.90;99.90
67163;DHT22;54092;53.088;8.850;2024-03-06T07:04:06;3.90;99.90
67163;DHT22;54092;53.088;8.850;2024-03-06T07:06:31;4.00;99.90
67163;DHT22;54092;53.088;8.850;2024-03-06T07:08:57;4.00;99.90
67163;DHT22;54092;53.088;8.850;2024-03-06T07:11:22;4.00;99.90
67163;DHT22;54092;53.088;8.850;2024-03-06T07:13:49;4.10;99.90
67163;DHT22;54092;53.088;8.850;2024-03-06T07:16:14;4.10;99.90
67163;DHT22;54092;53.088;8.850;2024-03-06T07:18:40;4.10;99.90
67163;DHT22;54092;53.088;8.850;2024-03-06T07:21:05;4.10;99.90
67163;DHT22;54092;53.088;8.850;2024-03-06T07:23:31;4.10;99.90
67163;DHT22;54092;53.088;8.850;2024-03-06T07:25:57;4.20;99.90
67163;DHT22;54092;53.088;8.850;2024-03-06T07:28:24;4.10;99.90
67163;DHT22;54092;53.088;8.850;2024-03-06T07:30:51;4.10;99.90
67163;DHT22;54092;53.088;8.850;2024-03-06T07:33:16;4.10;99.90
67163;DHT22;54092;53.088;8.850;2024-03-06T07:35:42;4.10;99.90
67163;DHT22;54092;53.088;8.850;2024-03-06T07:38:07;4.10;99.90
67163;DHT22;54092;53.088;8.850;2024-03-06T07:40:33;4.20;99.90
67163;DHT22;54092;53.088;8.850;2024-03-06T07:42:59;4.10;99.90
67163;DHT22;54092;53.088;8.850;2024-03-06T07:45:25;4.20;99.90
67163;DHT22;54092;53.088;8.850;2024-03-06T07:47:51;4.20;99.90
67163;DHT22;54092;53.088;8.850;2024-03-06T07:50:17;4.10;99.90
67163;DHT22;54092;53.088;8.850;2024-03-06T07:52:45;4.10;99.90
67163;DHT22;54092;53.088;8.850;2024-03-06T07:55:11;4.10;99.90
67163;DHT22;54092;53.088;8.850;2024-03-06T07:57:37;4.10;99.90
67163;DHT22;54092;53.088;8.850;2024-03-06T08:00:03;4.10;99.90
67163;DHT22;54092;53.088;8.850;2024-03-06T08:02:42;4.20;99.90
67163;DHT22;54092;53.088;8.850;2024-03-06T08:05:10;4.30;99.90
67163;DHT22;54092;53.088;8.850;2024-03-06T08:07:38;4.30;99.90
67163;DHT22;54092;53.088;8.850;2024-03-06T08:10:04;4.30;99.90
67163;DHT22;54092;53.088;8.850;2024-03-06T08:12:31;4.30;99.90
67163;DHT22;54092;53.088;8.850;2024-03-06T08:14:56;4.40;99.90
67163;DHT22;54092;53.088;8.850;2024-03-06T08:17:22;4.40;99.90
67163;DHT22;54092;53.088;8.850;2024-03-06T08:19:47;4.50;99.90
67163;DHT22;54092;53.088;8.850;2024-03-06T08:22:13;4.50;99.90
67163;DHT22;54092;53.088;8.850;2024-03-06T08:24:39;4.50;99.90
67163;DHT22;54092;53.088;8.850;2024-03-06T08:27:04;4.60;99.90
67163;DHT22;54092;53.088;8.850;2024-03-06T08:29:30;4.70;99.90
67163;DHT22;54092;53.088;8.850;2024-03-06T08:31:55;4.70;99.90
67163;DHT22;54092;53.088;8.850;2024-03-06T08:34:23;4.80;99.90
67163;DHT22;54092;53.088;8.850;2024-03-06T08:36:49;4.90;99.90
67163;DHT22;54092;53.088;8.850;2024-03-06T08:39:15;5.00;99.90
67163;DHT22;54092;53.088;8.850;2024-03-06T08:41:44;5.10;99.90
67163;DHT22;54092;53.088;8.850;2024-03-06T08:44:09;5.20;99.90
67163;DHT22;54092;53.088;8.850;2024-03-06T08:46:34;5.30;99.90
67163;DHT22;54092;53.088;8.850;2024-03-06T08:49:00;5.30;99.90
67163;DHT22;54092;53.088;8.850;2024-03-06T08:51:26;5.30;99.90
67163;DHT22;54092;53.088;8.850;2024-03-06T08:53:51;5.30;99.90
67163;DHT22;54092;53.088;8.850;2024-03-06T08:56:17;5.30;99.90
67163;DHT22;54092;53.088;8.850;2024-03-06T08:58:43;5.30;99.90
67163;DHT22;54092;53.088;8.850;2024-03-06T09:01:09;5.40;99.90
67163;DHT22;54092;53.088;8.850;2024-03-06T09:03:34;5.40;99.90
67163;DHT22;54092;53.088;8.850;2024-03-06T09:06:00;5.50;99.90
67163;DHT22;54092;53.088;8.850;2024-03-06T09:08:28;5.60;99.90
67163;DHT22;54092;53.088;8.850;2024-03-06T09:10:53;5.60;99.90
67163;DHT22;54092;53.088;8.850;2024-03-06T09:13:19;5.80;99.90
67163;DHT22;54092;53.088;8.850;2024-03-06T09:15:45;5.90;99.90
67163;DHT22;54092;53.088;8.850;2024-03-06T09:18:10;6.00;99.90
67163;DHT22;54092;53.088;8.850;2024-03-06T09:20:36;6.20;99.90
67163;DHT22;54092;53.088;8.850;2024-03-06T09:23:01;6.40;99.90
67163;DHT22;54092;53.088;8.850;2024-03-06T09:25:27;6.50;99.90
67163;DHT22;54092;53.088;8.850;2024-03-06T09:27:52;6.60;99.90
67163;DHT22;54092;53.088;8.850;2024-03-06T09:30:19;6.80;99.90
67163;DHT22;54092;53.088;8.850;2024-03-06T09:32:47;6.90;99.90
67163;DHT22;54092;53.088;8.850;2024-03-06T09:35:13;7.10;99.90
67163;DHT22;54092;53.088;8.850;2024-03-06T09:37:39;7.20;99.90
67163;DHT22;54092;53.088;8.850;2024-03-06T09:40:05;7.30;99.90
67163;DHT22;54092;53.088;8.850;2024-03-06T09:42:32;7.40;99.90
67163;DHT22;54092;53.088;8.850;2024-03-06T09:44:58;7.60;99.90
67163;DHT22;54092;53.088;8.850;2024-03-06T09:47:25;7.70;99.90
67163;DHT22;54092;53.088;8.850;2024-03-06T09:49:53;7.80;99.90
67163;DHT22;54092;53.088;8.850;2024-03-06T09:52:19;7.80;99.90
67163;DHT22;54092;53.088;8.850;2024-03-06T09:54:44;7.80;99.90
67163;DHT22;54092;53.088;8.850;2024-03-06T09:57:10;7.80;99.90
67163;DHT22;54092;53.088;8.850;2024-03-06T09:59:38;7.80;99.90
67163;DHT22;54092;53.088;8.850;2024-03-06T10:02:18;7.90;99.90
67163;DHT22;54092;53.088;8.850;2024-03-06T10:04:44;8.00;99.90
67163;DHT22;54092;53.088;8.850;2024-03-06T10:07:09;8.10;99.90
67163;DHT22;54092;53.088;8.850;2024-03-06T10:09:35;8.30;99.90
67163;DHT22;54092;53.088;8.850;2024-03-06T10:12:01;8.60;99.90
67163;DHT22;54092;53.088;8.850;2024-03-06T10:14:27;9.00;99.90
67163;DHT22;54092;53.088;8.850;2024-03-06T10:16:55;9.50;99.90
67163;DHT22;54092;53.088;8.850;2024-03-06T10:19:25;10.20;99.90
67163;DHT22;54092;53.088;8.850;2024-03-06T10:21:53;10.40;99.30
67163;DHT22;54092;53.088;8.850;2024-03-06T10:24:23;10.40;95.00
67163;DHT22;54092;53.088;8.850;2024-03-06T10:26:50;10.10;95.50
67163;DHT22;54092;53.088;8.850;2024-03-06T10:29:17;9.90;95.70
67163;DHT22;54092;53.088;8.850;2024-03-06T10:31:53;9.80;95.10
67163;DHT22;54092;53.088;8.850;2024-03-06T10:34:24;9.90;96.50
67163;DHT22;54092;53.088;8.850;2024-03-06T10:36:54;9.90;95.70
67163;DHT22;54092;53.088;8.850;2024-03-06T10:39:20;9.90;95.20
67163;DHT22;54092;53.088;8.850;2024-03-06T10:41:53;9.90;94.00
67163;DHT22;54092;53.088;8.850;2024-03-06T10:44:22;10.00;93.30
67163;DHT22;54092;53.088;8.850;2024-03-06T10:46:55;10.40;94.50
67163;DHT22;54092;53.088;8.850;2024-03-06T10:49:23;11.20;92.00
67163;DHT22;54092;53.088;8.850;2024-03-06T10:51:49;11.30;88.50
67163;DHT22;54092;53.088;8.850;2024-03-06T10:54:16;10.80;88.90
67163;DHT22;54092;53.088;8.850;2024-03-06T10:56:42;10.50;90.80
67163;DHT22;54092;53.088;8.850;2024-03-06T10:59:11;10.40;90.60
67163;DHT22;54092;53.088;8.850;2024-03-06T11:01:40;10.00;91.00
67163;DHT22;54092;53.088;8.850;2024-03-06T11:04:06;9.80;91.40
67163;DHT22;54092;53.088;8.850;2024-03-06T11:06:33;9.80;92.20
67163;DHT22;54092;53.088;8.850;2024-03-06T11:09:00;9.80;91.60
67163;DHT22;54092;53.088;8.850;2024-03-06T11:11:26;9.60;91.60
67163;DHT22;54092;53.088;8.850;2024-03-06T11:13:55;9.60;91.00
67163;DHT22;54092;53.088;8.850;2024-03-06T11:16:29;9.60;91.80
67163;DHT22;54092;53.088;8.850;2024-03-06T11:19:05;9.90;91.40
67163;DHT22;54092;53.088;8.850;2024-03-06T11:21:32;10.20;89.60
67163;DHT22;54092;53.088;8.850;2024-03-06T11:24:15;10.30;87.50
67163;DHT22;54092;53.088;8.850;2024-03-06T11:27:01;10.40;88.80
67163;DHT22;54092;53.088;8.850;2024-03-06T11:29:28;10.80;85.20
67163;DHT22;54092;53.088;8.850;2024-03-06T11:32:02;11.00;84.90
67163;DHT22;54092;53.088;8.850;2024-03-06T11:34:29;11.60;84.10
67163;DHT22;54092;53.088;8.850;2024-03-06T11:36:58;12.60;78.80
67163;DHT22;54092;53.088;8.850;2024-03-06T11:39:27;13.60;69.60
67163;DHT22;54092;53.088;8.850;2024-03-06T11:41:53;14.00;69.60
67163;DHT22;54092;53.088;8.850;2024-03-06T11:44:20;14.60;65.50
67163;DHT22;54092;53.088;8.850;2024-03-06T11:47:00;15.10;63.80
67163;DHT22;54092;53.088;8.850;2024-03-06T11:49:27;15.50;59.10
67163;DHT22;54092;53.088;8.850;2024-03-06T11:52:03;15.70;58.00
67163;DHT22;54092;53.088;8.850;2024-03-06T11:54:30;15.80;53.60
67163;DHT22;54092;53.088;8.850;2024-03-06T11:56:58;15.80;53.50
67163;DHT22;54092;53.088;8.850;2024-03-06T11:59:28;16.00;53.10
67163;DHT22;54092;53.088;8.850;2024-03-06T12:01:55;15.90;52.50
67163;DHT22;54092;53.088;8.850;2024-03-06T12:04:22;15.80;53.10
67163;DHT22;54092;53.088;8.850;2024-03-06T12:06:48;15.80;54.10
67163;DHT22;54092;53.088;8.850;2024-03-06T12:09:14;15.90;53.20
67163;DHT22;54092;53.088;8.850;2024-03-06T12:11:40;14.90;52.50
67163;DHT22;54092;53.088;8.850;2024-03-06T12:14:13;14.40;52.50
67163;DHT22;54092;53.088;8.850;2024-03-06T12:16:39;14.60;55.60
67163;DHT22;54092;53.088;8.850;2024-03-06T12:19:05;15.10;54.40
67163;DHT22;54092;53.088;8.850;2024-03-06T12:21:34;15.60;53.90
67163;DHT22;54092;53.088;8.850;2024-03-06T12:24:06;15.90;50.90
67163;DHT22;54092;53.088;8.850;2024-03-06T12:26:33;16.20;48.00
67163;DHT22;54092;53.088;8.850;2024-03-06T12:29:10;16.00;47.90
67163;DHT22;54092;53.088;8.850;2024-03-06T12:31:37;15.70;49.00
67163;DHT22;54092;53.088;8.850;2024-03-06T12:34:04;14.60;49.20
67163;DHT22;54092;53.088;8.850;2024-03-06T12:36:30;14.40;50.60
67163;DHT22;54092;53.088;8.850;2024-03-06T12:38:58;13.50;52.00
67163;DHT22;54092;53.088;8.850;2024-03-06T12:41:24;13.60;54.70
67163;DHT22;54092;53.088;8.850;2024-03-06T12:43:51;13.40;55.00
67163;DHT22;54092;53.088;8.850;2024-03-06T12:46:17;13.80;54.40
67163;DHT22;54092;53.088;8.850;2024-03-06T12:48:42;14.40;53.00
67163;DHT22;54092;53.088;8.850;2024-03-06T12:51:08;15.00;52.90
67163;DHT22;54092;53.088;8.850;2024-03-06T12:53:33;15.50;50.30
67163;DHT22;54092;53.088;8.850;2024-03-06T12:56:00;14.50;50.40
67163;DHT22;54092;53.088;8.850;2024-03-06T12:58:26;14.90;50.60
67163;DHT22;54092;53.088;8.850;2024-03-06T13:00:51;14.80;53.10
67163;DHT22;54092;53.088;8.850;2024-03-06T13:03:18;15.40;51.70
67163;DHT22;54092;53.088;8.850;2024-03-06T13:05:43;15.50;51.00
67163;DHT22;54092;53.088;8.850;2024-03-06T13:08:10;16.00;48.80
67163;DHT22;54092;53.088;8.850;2024-03-06T13:10:38;16.00;47.50
67163;DHT22;54092;53.088;8.850;2024-03-06T13:13:04;16.00;47.90
67163;DHT22;54092;53.088;8.850;2024-03-06T13:15:29;15.80;48.00
67163;DHT22;54092;53.088;8.850;2024-03-06T13:17:55;16.10;48.10
67163;DHT22;54092;53.088;8.850;2024-03-06T13:20:21;16.00;46.40
67163;DHT22;54092;53.088;8.850;2024-03-06T13:22:47;15.30;49.10
67163;DHT22;54092;53.088;8.850;2024-03-06T13:25:12;15.90;48.80
67163;DHT22;54092;53.088;8.850;2024-03-06T13:27:38;16.40;47.70
67163;DHT22;54092;53.088;8.850;2024-03-06T13:30:03;16.10;47.40
67163;DHT22;54092;53.088;8.850;2024-03-06T13:32:30;16.40;47.10
67163;DHT22;54092;53.088;8.850;2024-03-06T13:34:56;16.50;47.60
67163;DHT22;54092;53.088;8.850;2024-03-06T13:37:21;16.20;47.10
67163;DHT22;54092;53.088;8.850;2024-03-06T13:39:49;15.70;49.90
67163;DHT22;54092;53.088;8.850;2024-03-06T13:42:14;15.80;49.50
67163;DHT22;54092;53.088;8.850;2024-03-06T13:44:40;15.80;48.50
67163;DHT22;54092;53.088;8.850;2024-03-06T13:47:05;15.40;50.20
67163;DHT22;54092;53.088;8.850;2024-03-06T13:49:40;15.10;48.30
67163;DHT22;54092;53.088;8.850;2024-03-06T13:52:08;15.10;52.10
67163;DHT22;54092;53.088;8.850;2024-03-06T13:54:37;15.20;52.10
67163;DHT22;54092;53.088;8.850;2024-03-06T13:57:03;15.30;49.70
67163;DHT22;54092;53.088;8.850;2024-03-06T13:59:32;15.20;49.60
67163;DHT22;54092;53.088;8.850;2024-03-06T14:01:58;15.10;49.80
67163;DHT22;54092;53.088;8.850;2024-03-06T14:04:28;14.80;50.50
67163;DHT22;54092;53.088;8.850;2024-03-06T14:06:53;14.40;52.40
67163;DHT22;54092;53.088;8.850;2024-03-06T14:09:19;14.10;52.80
67163;DHT22;54092;53.088;8.850;2024-03-06T14:11:44;13.80;55.60
67163;DHT22;54092;53.088;8.850;2024-03-06T14:14:10;13.50;54.20
67163;DHT22;54092;53.088;8.850;2024-03-06T14:16:37;13.20;56.30
67163;DHT22;54092;53.088;8.850;2024-03-06T14:19:02;13.00;60.60
67163;DHT22;54092;53.088;8.850;2024-03-06T14:21:30;12.90;59.60
67163;DHT22;54092;53.088;8.850;2024-03-06T14:23:55;12.70;59.00
67163;DHT22;54092;53.088;8.850;2024-03-06T14:26:21;12.60;61.50
67163;DHT22;54092;53.088;8.850;2024-03-06T14:28:46;12.50;61.00
67163;DHT22;54092;53.088;8.850;2024-03-06T14:31:12;12.30;60.50
67163;DHT22;54092;53.088;8.850;2024-03-06T14:33:39;12.20;60.80
67163;DHT22;54092;53.088;8.850;2024-03-06T14:36:05;12.20;62.90
67163;DHT22;54092;53.088;8.850;2024-03-06T14:38:32;12.20;62.20
67163;DHT22;54092;53.088;8.850;2024-03-06T14:40:58;12.20;63.50
67163;DHT22;54092;53.088;8.850;2024-03-06T14:43:24;12.20;64.00
67163;DHT22;54092;53.088;8.850;2024-03-06T14:45:50;12.20;62.60
67163;DHT22;54092;53.088;8.850;2024-03-06T14:48:15;12.20;62.80
67163;DHT22;54092;53.088;8.850;2024-03-06T14:50:41;12.20;64.10
67163;DHT22;54092;53.088;8.850;2024-03-06T14:53:06;12.20;63.40
67163;DHT22;54092;53.088;8.850;2024-03-06T14:55:32;12.10;63.90
67163;DHT22;54092;53.088;8.850;2024-03-06T14:57:57;12.00;64.00
67163;DHT22;54092;53.088;8.850;2024-03-06T15:00:23;12.10;63.30
67163;DHT22;54092;53.088;8.850;2024-03-06T15:02:48;11.90;64.90
67163;DHT22;54092;53.088;8.850;2024-03-06T15:05:14;11.90;65.10
67163;DHT22;54092;53.088;8.850;2024-03-06T15:07:40;11.80;66.00
67163;DHT22;54092;53.088;8.850;2024-03-06T15:10:08;11.80;66.60
67163;DHT22;54092;53.088;8.850;2024-03-06T15:12:34;11.70;68.00
67163;DHT22;54092;53.088;8.850;2024-03-06T15:15:02;11.60;70.10
67163;DHT22;54092;53.088;8.850;2024-03-06T15:17:29;11.70;69.20
67163;DHT22;54092;53.088;8.850;2024-03-06T15:19:56;11.70;70.50
67163;DHT22;54092;53.088;8.850;2024-03-06T15:22:22;11.60;66.10
67163;DHT22;54092;53.088;8.850;2024-03-06T15:24:47;11.60;66.90
67163;DHT22;54092;53.088;8.850;2024-03-06T15:27:15;11.50;67.60
67163;DHT22;54092;53.088;8.850;2024-03-06T15:29:42;11.50;69.00
67163;DHT22;54092;53.088;8.850;2024-03-06T15:32:07;11.50;72.20
67163;DHT22;54092;53.088;8.850;2024-03-06T15:34:33;11.40;71.50
67163;DHT22;54092;53.088;8.850;2024-03-06T15:36:58;11.40;72.90
67163;DHT22;54092;53.088;8.850;2024-03-06T15:39:25;11.30;70.50